sensor_id;sensor_type;location;lat;lon;timestamp;pressure;altitude;pressure_sealevel;temperature;humidity
6090;BME280;3073;42.660;23.316;2023-02-28T00:01:04;94954.66;;;7.03;100.00
6090;BME280;3073;42.660;23.316;2023-02-28T00:03:31;94965.03;;;6.95;100.00
6090;BME280;3073;42.660;23.316;2023-02-28T00:06:06;94976.34;;;6.92;100.00
6090;BME280;3073;42.660;23.316;2023-02-28T00:08:35;94961.06;;;7.05;100.00
6090;BME280;3073;42.660;23.316;2023-02-28T00:11:04;94956.78;;;7.06;100.00
6090;BME280;3073;42.660;23.316;2023-02-28T00:13:33;94964.00;;;7.09;100.00
6090;BME280;3073;42.660;23.316;2023-02-28T00:16:01;94958.53;;;7.05;100.00
6090;BME280;3073;42.660;23.316;2023-02-28T00:18:29;94969.63;;;7.11;100.00
6090;BME280;3073;42.660;23.316;2023-02-28T00:20:56;94975.09;;;7.08;100.00
6090;BME280;3073;42.660;23.316;2023-02-28T00:23:23;94975.88;;;7.08;100.00
6090;BME280;3073;42.660;23.316;2023-02-28T00:25:50;94975.91;;;7.02;100.00
6090;BME280;3073;42.660;23.316;2023-02-28T00:28:19;94978.63;;;7.13;100.00
6090;BME280;3073;42.660;23.316;2023-02-28T00:30:46;94985.63;;;7.11;100.00
6090;BME280;3073;42.660;23.316;2023-02-28T00:33:13;94969.97;;;7.21;100.00
6090;BME280;3073;42.660;23.316;2023-02-28T00:35:40;94970.16;;;7.26;100.00
6090;BME280;3073;42.660;23.316;2023-02-28T00:38:07;94978.09;;;7.36;100.00
6090;BME280;3073;42.660;23.316;2023-02-28T00:40:34;94981.81;;;7.40;100.00
6090;BME280;3073;42.660;23.316;2023-02-28T00:43:01;94978.97;;;7.55;100.00
6090;BME280;3073;42.660;23.316;2023-02-28T00:45:30;94970.19;;;7.51;100.00
6090;BME280;3073;42.660;23.316;2023-02-28T00:47:57;94965.69;;;7.53;100.00
6090;BME280;3073;42.660;23.316;2023-02-28T00:50:24;94957.94;;;7.41;100.00
6090;BME280;3073;42.660;23.316;2023-02-28T00:52:51;94973.63;;;7.32;100.00
6090;BME280;3073;42.660;23.316;2023-02-28T00:55:18;94973.25;;;7.28;100.00
6090;BME280;3073;42.660;23.316;2023-02-28T00:57:45;94958.22;;;7.33;100.00
6090;BME280;3073;42.660;23.316;2023-02-28T01:00:12;94972.28;;;7.29;100.00
6090;BME280;3073;42.660;23.316;2023-02-28T01:02:41;94968.78;;;7.30;100.00
6090;BME280;3073;42.660;23.316;2023-02-28T01:05:08;94967.44;;;7.21;100.00
6090;BME280;3073;42.660;23.316;2023-02-28T01:07:35;94969.00;;;7.22;100.00
6090;BME280;3073;42.660;23.316;2023-02-28T01:10:01;94964.72;;;7.22;100.00
6090;BME280;3073;42.660;23.316;2023-02-28T01:12:35;94971.56;;;7.15;100.00
6090;BME280;3073;42.660;23.316;2023-02-28T01:15:02;94961.78;;;7.19;100.00
6090;BME280;3073;42.660;23.316;2023-02-28T01:17:29;94972.34;;;7.16;100.00
6090;BME280;3073;42.660;23.316;2023-02-28T01:19:59;94965.78;;;7.02;100.00
6090;BME280;3073;42.660;23.316;2023-02-28T01:22:25;94966.16;;;7.05;100.00
6090;BME280;3073;42.660;23.316;2023-02-28T01:24:52;94965.38;;;7.05;100.00
6090;BME280;3073;42.660;23.316;2023-02-28T01:27:19;94957.78;;;6.98;100.00
6090;BME280;3073;42.660;23.316;2023-02-28T01:29:46;94970.50;;;6.92;100.00
6090;BME280;3073;42.660;23.316;2023-02-28T01:32:13;94956.06;;;6.92;100.00
6090;BME280;3073;42.660;23.316;2023-02-28T01:34:40;94965.63;;;6.97;100.00
6090;BME280;3073;42.660;23.316;2023-02-28T01:37:08;94967.41;;;6.90;100.00
6090;BME280;3073;42.660;23.316;2023-02-28T01:39:35;94968.72;;;6.99;100.00
6090;BME280;3073;42.660;23.316;2023-02-28T01:42:01;94962.28;;;6.96;100.00
6090;BME280;3073;42.660;23.316;2023-02-28T01:44:55;94972.81;;;7.00;100.00
6090;BME280;3073;42.660;23.316;2023-02-28T01:47:22;94973.59;;;7.00;100.00
6090;BME280;3073;42.660;23.316;2023-02-28T01:49:51;94976.28;;;7.05;100.00
6090;BME280;3073;42.660;23.316;2023-02-28T01:52:20;94978.06;;;7.05;100.00
6090;BME280;3073;42.660;23.316;2023-02-28T01:54:52;94972.78;;;7.06;100.00
6090;BME280;3073;42.660;23.316;2023-02-28T01:57:22;94969.47;;;7.06;100.00
6090;BME280;3073;42.660;23.316;2023-02-28T01:59:54;94972.97;;;7.05;100.00
6090;BME280;3073;42.660;23.316;2023-02-28T02:02:24;94979.28;;;6.96;100.00
6090;BME280;3073;42.660;23.316;2023-02-28T02:04:55;94975.06;;;7.14;100.00
6090;BME280;3073;42.660;23.316;2023-02-28T02:07:25;94977.66;;;7.08;100.00
6090;BME280;3073;42.660;23.316;2023-02-28T02:10:00;94980.53;;;6.73;100.00
6090;BME280;3073;42.660;23.316;2023-02-28T02:12:34;94969.56;;;6.86;100.00
6090;BME280;3073;42.660;23.316;2023-02-28T02:15:10;94964.47;;;6.86;100.00
6090;BME280;3073;42.660;23.316;2023-02-28T02:17:41;94963.13;;;6.84;100.00
6090;BME280;3073;42.660;23.316;2023-02-28T02:26:52;94966.75;;;6.43;100.00
6090;BME280;3073;42.660;23.316;2023-02-28T02:32:50;94956.66;;;6.24;100.00
6090;BME280;3073;42.660;23.316;2023-02-28T02:35:25;94959.75;;;6.39;100.00
6090;BME280;3073;42.660;23.316;2023-02-28T02:38:00;94962.06;;;6.53;100.00
6090;BME280;3073;42.660;23.316;2023-02-28T02:40:37;94960.53;;;6.39;100.00
6090;BME280;3073;42.660;23.316;2023-02-28T02:43:08;94964.44;;;6.29;100.00
6090;BME280;3073;42.660;23.316;2023-02-28T02:45:41;94967.38;;;6.26;100.00
6090;BME280;3073;42.660;23.316;2023-02-28T02:48:11;94974.56;;;6.22;100.00
6090;BME280;3073;42.660;23.316;2023-02-28T02:50:45;94964.59;;;6.47;100.00
6090;BME280;3073;42.660;23.316;2023-02-28T02:53:14;94966.03;;;6.16;100.00
6090;BME280;3073;42.660;23.316;2023-02-28T02:55:46;94969.50;;;6.35;100.00
6090;BME280;3073;42.660;23.316;2023-02-28T02:58:21;94968.50;;;6.43;100.00
6090;BME280;3073;42.660;23.316;2023-02-28T03:00:53;94974.75;;;6.47;100.00
6090;BME280;3073;42.660;23.316;2023-02-28T03:03:22;94976.66;;;6.51;100.00
6090;BME280;3073;42.660;23.316;2023-02-28T03:05:56;94982.13;;;6.55;100.00
6090;BME280;3073;42.660;23.316;2023-02-28T03:08:23;94987.38;;;6.60;100.00
6090;BME280;3073;42.660;23.316;2023-02-28T03:10:51;95001.78;;;6.72;100.00
6090;BME280;3073;42.660;23.316;2023-02-28T03:13:39;95001.19;;;6.77;100.00
6090;BME280;3073;42.660;23.316;2023-02-28T03:19:03;95004.13;;;6.67;100.00
6090;BME280;3073;42.660;23.316;2023-02-28T03:21:39;95005.28;;;6.71;100.00
6090;BME280;3073;42.660;23.316;2023-02-28T03:24:09;95015.78;;;6.82;100.00
6090;BME280;3073;42.660;23.316;2023-02-28T03:26:39;95013.44;;;6.87;100.00
6090;BME280;3073;42.660;23.316;2023-02-28T03:29:14;95012.28;;;6.83;100.00
6090;BME280;3073;42.660;23.316;2023-02-28T03:31:46;95018.56;;;6.67;100.00
6090;BME280;3073;42.660;23.316;2023-02-28T03:34:19;95016.22;;;6.65;100.00
6090;BME280;3073;42.660;23.316;2023-02-28T03:36:53;95018.78;;;6.59;100.00
6090;BME280;3073;42.660;23.316;2023-02-28T03:39:25;95021.31;;;6.52;100.00
6090;BME280;3073;42.660;23.316;2023-02-28T03:42:00;95017.19;;;6.64;100.00
6090;BME280;3073;42.660;23.316;2023-02-28T03:44:34;95016.03;;;6.67;100.00
6090;BME280;3073;42.660;23.316;2023-02-28T03:47:03;95027.50;;;6.83;100.00
6090;BME280;3073;42.660;23.316;2023-02-28T03:49:36;95033.34;;;6.90;100.00
6090;BME280;3073;42.660;23.316;2023-02-28T03:52:06;95017.72;;;6.93;100.00
6090;BME280;3073;42.660;23.316;2023-02-28T03:54:37;95027.06;;;6.92;100.00
6090;BME280;3073;42.660;23.316;2023-02-28T03:57:11;95027.13;;;6.79;100.00
6090;BME280;3073;42.660;23.316;2023-02-28T03:59:45;95035.28;;;6.88;100.00
6090;BME280;3073;42.660;23.316;2023-02-28T04:02:14;95040.72;;;6.98;100.00
6090;BME280;3073;42.660;23.316;2023-02-28T04:04:41;95032.34;;;6.91;100.00
6090;BME280;3073;42.660;23.316;2023-02-28T04:07:15;95027.06;;;6.99;100.00
6090;BME280;3073;42.660;23.316;2023-02-28T04:09:42;95036.25;;;6.93;100.00
6090;BME280;3073;42.660;23.316;2023-02-28T04:12:09;95033.72;;;6.93;100.00
6090;BME280;3073;42.660;23.316;2023-02-28T04:14:42;95030.94;;;7.01;100.00
6090;BME280;3073;42.660;23.316;2023-02-28T04:17:08;95025.72;;;6.90;100.00
6090;BME280;3073;42.660;23.316;2023-02-28T04:19:35;95026.91;;;6.94;100.00
6090;BME280;3073;42.660;23.316;2023-02-28T04:22:02;95029.19;;;7.02;100.00
6090;BME280;3073;42.660;23.316;2023-02-28T04:24:31;95029.00;;;7.03;100.00
6090;BME280;3073;42.660;23.316;2023-02-28T04:26:58;95031.59;;;6.90;100.00
6090;BME280;3073;42.660;23.316;2023-02-28T04:29:27;95034.69;;;6.92;100.00
6090;BME280;3073;42.660;23.316;2023-02-28T04:31:54;95027.25;;;6.91;100.00
6090;BME280;3073;42.660;23.316;2023-02-28T04:34:23;95027.09;;;6.86;100.00
6090;BME280;3073;42.660;23.316;2023-02-28T04:36:50;95034.50;;;6.81;100.00
6090;BME280;3073;42.660;23.316;2023-02-28T04:39:19;95040.59;;;6.80;100.00
6090;BME280;3073;42.660;23.316;2023-02-28T04:41:48;95032.97;;;6.80;100.00
6090;BME280;3073;42.660;23.316;2023-02-28T04:44:15;95043.28;;;6.85;100.00
6090;BME280;3073;42.660;23.316;2023-02-28T04:46:43;95048.56;;;6.90;100.00
6090;BME280;3073;42.660;23.316;2023-02-28T04:49:11;95057.72;;;6.78;100.00
6090;BME280;3073;42.660;23.316;2023-02-28T04:51:38;95058.13;;;6.74;100.00
6090;BME280;3073;42.660;23.316;2023-02-28T04:54:05;95055.97;;;6.78;100.00
6090;BME280;3073;42.660;23.316;2023-02-28T04:56:32;95061.88;;;6.39;100.00
6090;BME280;3073;42.660;23.316;2023-02-28T04:59:01;95064.22;;;6.41;100.00
6090;BME280;3073;42.660;23.316;2023-02-28T05:01:29;95065.78;;;6.48;100.00
6090;BME280;3073;42.660;23.316;2023-02-28T05:03:59;95061.66;;;6.54;100.00
6090;BME280;3073;42.660;23.316;2023-02-28T05:06:28;95055.22;;;6.64;100.00
6090;BME280;3073;42.660;23.316;2023-02-28T05:08:55;95062.22;;;6.76;100.00
6090;BME280;3073;42.660;23.316;2023-02-28T05:11:24;95063.59;;;6.71;100.00
6090;BME280;3073;42.660;23.316;2023-02-28T05:13:53;95068.69;;;6.45;100.00
6090;BME280;3073;42.660;23.316;2023-02-28T05:16:22;95059.53;;;6.44;100.00
6090;BME280;3073;42.660;23.316;2023-02-28T05:18:50;95058.00;;;6.43;100.00
6090;BME280;3073;42.660;23.316;2023-02-28T05:21:28;95065.78;;;6.35;100.00
6090;BME280;3073;42.660;23.316;2023-02-28T05:23:58;95061.50;;;6.49;100.00
6090;BME280;3073;42.660;23.316;2023-02-28T05:26:26;95068.13;;;6.56;100.00
6090;BME280;3073;42.660;23.316;2023-02-28T05:28:54;95073.97;;;6.57;100.00
6090;BME280;3073;42.660;23.316;2023-02-28T05:31:23;95072.97;;;6.51;100.00
6090;BME280;3073;42.660;23.316;2023-02-28T05:33:50;95087.59;;;6.62;100.00
6090;BME280;3073;42.660;23.316;2023-02-28T05:36:17;95088.56;;;6.61;100.00
6090;BME280;3073;42.660;23.316;2023-02-28T05:38:46;95081.75;;;6.49;100.00
6090;BME280;3073;42.660;23.316;2023-02-28T05:41:15;95095.78;;;6.51;100.00
6090;BME280;3073;42.660;23.316;2023-02-28T05:43:42;95091.91;;;6.62;100.00
6090;BME280;3073;42.660;23.316;2023-02-28T05:46:11;95086.25;;;6.66;100.00
6090;BME280;3073;42.660;23.316;2023-02-28T05:48:41;95099.91;;;6.59;100.00
6090;BME280;3073;42.660;23.316;2023-02-28T05:51:08;95095.00;;;6.57;100.00
6090;BME280;3073;42.660;23.316;2023-02-28T05:53:36;95103.38;;;6.71;100.00
6090;BME280;3073;42.660;23.316;2023-02-28T05:56:03;95108.06;;;6.67;100.00
6090;BME280;3073;42.660;23.316;2023-02-28T05:58:31;95105.53;;;6.74;100.00
6090;BME280;3073;42.660;23.316;2023-02-28T06:00:59;95107.28;;;6.80;100.00
6090;BME280;3073;42.660;23.316;2023-02-28T06:03:27;95103.56;;;6.96;100.00
6090;BME280;3073;42.660;23.316;2023-02-28T06:05:55;95097.69;;;7.02;100.00
6090;BME280;3073;42.660;23.316;2023-02-28T06:08:22;95100.59;;;7.12;100.00
6090;BME280;3073;42.660;23.316;2023-02-28T06:10:49;95098.44;;;7.09;100.00
6090;BME280;3073;42.660;23.316;2023-02-28T06:13:16;95099.59;;;7.19;100.00
6090;BME280;3073;42.660;23.316;2023-02-28T06:15:42;95092.81;;;7.07;100.00
6090;BME280;3073;42.660;23.316;2023-02-28T06:18:09;95096.06;;;7.20;100.00
6090;BME280;3073;42.660;23.316;2023-02-28T06:20:36;95100.38;;;7.20;100.00
6090;BME280;3073;42.660;23.316;2023-02-28T06:23:06;95103.50;;;7.22;100.00
6090;BME280;3073;42.660;23.316;2023-02-28T06:25:33;95094.50;;;7.26;100.00
6090;BME280;3073;42.660;23.316;2023-02-28T06:28:00;95103.06;;;7.32;100.00
6090;BME280;3073;42.660;23.316;2023-02-28T06:30:27;95110.44;;;7.46;100.00
6090;BME280;3073;42.660;23.316;2023-02-28T06:32:56;95107.09;;;7.52;100.00
6090;BME280;3073;42.660;23.316;2023-02-28T06:35:23;95113.94;;;7.52;100.00
6090;BME280;3073;42.660;23.316;2023-02-28T06:37:50;95114.88;;;7.57;100.00
6090;BME280;3073;42.660;23.316;2023-02-28T06:40:18;95127.88;;;7.74;100.00
6090;BME280;3073;42.660;23.316;2023-02-28T06:42:45;95121.66;;;7.76;100.00
6090;BME280;3073;42.660;23.316;2023-02-28T06:45:14;95128.19;;;7.91;100.00
6090;BME280;3073;42.660;23.316;2023-02-28T06:47:41;95129.31;;;8.01;100.00
6090;BME280;3073;42.660;23.316;2023-02-28T06:50:11;95131.25;;;8.06;100.00
6090;BME280;3073;42.660;23.316;2023-02-28T06:52:38;95132.19;;;8.11;100.00
6090;BME280;3073;42.660;23.316;2023-02-28T06:55:06;95138.63;;;8.14;100.00
6090;BME280;3073;42.660;23.316;2023-02-28T06:57:35;95137.22;;;8.18;100.00
6090;BME280;3073;42.660;23.316;2023-02-28T07:00:05;95131.59;;;8.16;100.00
6090;BME280;3073;42.660;23.316;2023-02-28T07:02:33;95134.00;;;8.04;100.00
6090;BME280;3073;42.660;23.316;2023-02-28T07:05:00;95132.13;;;7.93;100.00
6090;BME280;3073;42.660;23.316;2023-02-28T07:07:27;95128.97;;;7.91;100.00
6090;BME280;3073;42.660;23.316;2023-02-28T07:09:54;95133.72;;;7.81;100.00
6090;BME280;3073;42.660;23.316;2023-02-28T07:12:21;95136.59;;;7.91;100.00
6090;BME280;3073;42.660;23.316;2023-02-28T07:14:50;95133.63;;;8.01;100.00
6090;BME280;3073;42.660;23.316;2023-02-28T07:17:17;95133.22;;;8.04;100.00
6090;BME280;3073;42.660;23.316;2023-02-28T07:19:44;95128.91;;;8.04;100.00
6090;BME280;3073;42.660;23.316;2023-02-28T07:22:11;95129.69;;;8.05;100.00
6090;BME280;3073;42.660;23.316;2023-02-28T07:25:00;95133.56;;;8.07;100.00
6090;BME280;3073;42.660;23.316;2023-02-28T07:27:37;95141.38;;;8.12;100.00
6090;BME280;3073;42.660;23.316;2023-02-28T07:30:07;95134.50;;;8.19;100.00
6090;BME280;3073;42.660;23.316;2023-02-28T07:32:48;95133.16;;;8.17;100.00
6090;BME280;3073;42.660;23.316;2023-02-28T07:35:20;95140.88;;;8.35;100.00
6090;BME280;3073;42.660;23.316;2023-02-28T07:37:47;95139.63;;;8.44;100.00
6090;BME280;3073;42.660;23.316;2023-02-28T07:40:14;95137.88;;;8.45;100.00
6090;BME280;3073;42.660;23.316;2023-02-28T07:42:43;95138.47;;;8.47;100.00
6090;BME280;3073;42.660;23.316;2023-02-28T07:45:12;95140.69;;;8.37;100.00
6090;BME280;3073;42.660;23.316;2023-02-28T07:47:41;95135.00;;;8.03;100.00
6090;BME280;3073;42.660;23.316;2023-02-28T07:50:11;95136.41;;;7.93;100.00
6090;BME280;3073;42.660;23.316;2023-02-28T07:52:38;95131.03;;;7.76;100.00
6090;BME280;3073;42.660;23.316;2023-02-28T07:55:08;95120.88;;;7.76;100.00
6090;BME280;3073;42.660;23.316;2023-02-28T07:57:36;95125.91;;;7.83;100.00
6090;BME280;3073;42.660;23.316;2023-02-28T08:00:04;95132.91;;;7.94;100.00
6090;BME280;3073;42.660;23.316;2023-02-28T08:02:32;95125.47;;;7.92;100.00
6090;BME280;3073;42.660;23.316;2023-02-28T08:04:59;95127.25;;;7.85;100.00
6090;BME280;3073;42.660;23.316;2023-02-28T08:07:27;95126.41;;;7.98;100.00
6090;BME280;3073;42.660;23.316;2023-02-28T08:09:53;95129.13;;;8.03;100.00
6090;BME280;3073;42.660;23.316;2023-02-28T08:12:20;95118.41;;;8.32;100.00
6090;BME280;3073;42.660;23.316;2023-02-28T08:14:47;95129.22;;;8.52;100.00
6090;BME280;3073;42.660;23.316;2023-02-28T08:17:14;95130.75;;;8.60;100.00
6090;BME280;3073;42.660;23.316;2023-02-28T08:19:45;95133.16;;;8.73;100.00
6090;BME280;3073;42.660;23.316;2023-02-28T08:22:12;95131.56;;;8.78;100.00
6090;BME280;3073;42.660;23.316;2023-02-28T08:24:40;95134.34;;;8.95;100.00
6090;BME280;3073;42.660;23.316;2023-02-28T08:27:07;95138.75;;;9.06;100.00
6090;BME280;3073;42.660;23.316;2023-02-28T08:29:36;95135.97;;;9.08;100.00
6090;BME280;3073;42.660;23.316;2023-02-28T08:32:04;95129.47;;;8.94;100.00
6090;BME280;3073;42.660;23.316;2023-02-28T08:34:31;95134.91;;;8.48;100.00
6090;BME280;3073;42.660;23.316;2023-02-28T08:36:59;95136.53;;;8.42;100.00
6090;BME280;3073;42.660;23.316;2023-02-28T08:39:26;95137.59;;;8.59;100.00
6090;BME280;3073;42.660;23.316;2023-02-28T08:41:53;95136.16;;;8.39;100.00
6090;BME280;3073;42.660;23.316;2023-02-28T08:44:19;95147.06;;;8.46;100.00
6090;BME280;3073;42.660;23.316;2023-02-28T08:46:47;95141.81;;;8.41;100.00
6090;BME280;3073;42.660;23.316;2023-02-28T08:49:13;95136.00;;;8.34;100.00
6090;BME280;3073;42.660;23.316;2023-02-28T08:51:41;95132.91;;;8.25;100.00
6090;BME280;3073;42.660;23.316;2023-02-28T08:54:10;95137.78;;;8.33;100.00
6090;BME280;3073;42.660;23.316;2023-02-28T08:56:38;95144.63;;;8.26;100.00
6090;BME280;3073;42.660;23.316;2023-02-28T08:59:05;95142.97;;;8.45;100.00
6090;BME280;3073;42.660;23.316;2023-02-28T09:01:32;95149.00;;;8.50;100.00
6090;BME280;3073;42.660;23.316;2023-02-28T09:03:59;95147.13;;;8.39;100.00
6090;BME280;3073;42.660;23.316;2023-02-28T09:06:28;95147.53;;;8.36;100.00
6090;BME280;3073;42.660;23.316;2023-02-28T09:08:56;95140.59;;;8.12;100.00
6090;BME280;3073;42.660;23.316;2023-02-28T09:11:26;95132.69;;;8.33;100.00
6090;BME280;3073;42.660;23.316;2023-02-28T09:13:53;95142.63;;;8.03;100.00
6090;BME280;3073;42.660;23.316;2023-02-28T09:16:21;95141.34;;;8.19;100.00
6090;BME280;3073;42.660;23.316;2023-02-28T09:18:48;95137.81;;;8.20;100.00
6090;BME280;3073;42.660;23.316;2023-02-28T09:21:18;95138.75;;;8.25;100.00
6090;BME280;3073;42.660;23.316;2023-02-28T09:23:46;95133.44;;;8.40;100.00
6090;BME280;3073;42.660;23.316;2023-02-28T09:26:14;95134.66;;;8.56;100.00
6090;BME280;3073;42.660;23.316;2023-02-28T09:28:43;95136.34;;;8.44;100.00
6090;BME280;3073;42.660;23.316;2023-02-28T09:31:14;95136.22;;;8.32;100.00
6090;BME280;3073;42.660;23.316;2023-02-28T09:33:42;95132.41;;;8.41;100.00
6090;BME280;3073;42.660;23.316;2023-02-28T09:36:09;95134.56;;;8.69;100.00
6090;BME280;3073;42.660;23.316;2023-02-28T09:38:36;95139.97;;;9.04;100.00
6090;BME280;3073;42.660;23.316;2023-02-28T09:41:08;95134.72;;;9.17;100.00
6090;BME280;3073;42.660;23.316;2023-02-28T09:43:41;95132.91;;;9.42;100.00
6090;BME280;3073;42.660;23.316;2023-02-28T09:46:20;95131.19;;;9.54;100.00
6090;BME280;3073;42.660;23.316;2023-02-28T09:48:51;95131.53;;;9.76;100.00
6090;BME280;3073;42.660;23.316;2023-02-28T09:51:37;95134.53;;;9.84;100.00
6090;BME280;3073;42.660;23.316;2023-02-28T09:54:13;95132.75;;;9.73;100.00
6090;BME280;3073;42.660;23.316;2023-02-28T09:56:45;95124.66;;;9.76;100.00
6090;BME280;3073;42.660;23.316;2023-02-28T09:59:25;95124.88;;;9.75;100.00
6090;BME280;3073;42.660;23.316;2023-02-28T10:02:04;95121.34;;;9.76;100.00
6090;BME280;3073;42.660;23.316;2023-02-28T10:04:43;95111.44;;;9.98;100.00
6090;BME280;3073;42.660;23.316;2023-02-28T10:07:23;95114.09;;;10.21;100.00
6090;BME280;3073;42.660;23.316;2023-02-28T10:09:58;95113.13;;;10.04;100.00
6090;BME280;3073;42.660;23.316;2023-02-28T10:12:27;95102.03;;;10.28;100.00
6090;BME280;3073;42.660;23.316;2023-02-28T10:14:58;95103.94;;;10.03;100.00
6090;BME280;3073;42.660;23.316;2023-02-28T10:17:36;95104.03;;;10.26;100.00
6090;BME280;3073;42.660;23.316;2023-02-28T10:20:09;95089.53;;;10.50;100.00
6090;BME280;3073;42.660;23.316;2023-02-28T10:22:44;95096.41;;;10.49;100.00
6090;BME280;3073;42.660;23.316;2023-02-28T10:25:19;95093.19;;;10.42;100.00
6090;BME280;3073;42.660;23.316;2023-02-28T10:27:46;95092.44;;;10.53;100.00
6090;BME280;3073;42.660;23.316;2023-02-28T10:30:13;95091.13;;;10.74;100.00
6090;BME280;3073;42.660;23.316;2023-02-28T10:32:47;95087.31;;;10.88;100.00
6090;BME280;3073;42.660;23.316;2023-02-28T10:35:17;95083.88;;;11.06;100.00
6090;BME280;3073;42.660;23.316;2023-02-28T10:37:46;95085.84;;;11.27;100.00
6090;BME280;3073;42.660;23.316;2023-02-28T10:40:27;95077.16;;;11.68;100.00
6090;BME280;3073;42.660;23.316;2023-02-28T10:42:56;95071.84;;;11.69;100.00
6090;BME280;3073;42.660;23.316;2023-02-28T10:45:23;95067.16;;;12.23;100.00
6090;BME280;3073;42.660;23.316;2023-02-28T10:47:54;95064.84;;;12.38;100.00
6090;BME280;3073;42.660;23.316;2023-02-28T10:50:32;95060.59;;;12.60;100.00
6090;BME280;3073;42.660;23.316;2023-02-28T10:53:28;95059.31;;;12.79;100.00
6090;BME280;3073;42.660;23.316;2023-02-28T10:55:59;95044.66;;;12.58;100.00
6090;BME280;3073;42.660;23.316;2023-02-28T10:58:28;95043.84;;;12.36;100.00
6090;BME280;3073;42.660;23.316;2023-02-28T11:00:56;95054.75;;;12.48;100.00
6090;BME280;3073;42.660;23.316;2023-02-28T11:03:30;95043.19;;;12.46;100.00
6090;BME280;3073;42.660;23.316;2023-02-28T11:05:58;95033.34;;;12.04;100.00
6090;BME280;3073;42.660;23.316;2023-02-28T11:08:25;95029.09;;;12.10;100.00
6090;BME280;3073;42.660;23.316;2023-02-28T11:10:57;95032.94;;;11.96;100.00
6090;BME280;3073;42.660;23.316;2023-02-28T11:13:27;95023.34;;;12.03;100.00
6090;BME280;3073;42.660;23.316;2023-02-28T11:15:58;95028.78;;;12.23;100.00
6090;BME280;3073;42.660;23.316;2023-02-28T11:18:29;95027.34;;;12.65;100.00
6090;BME280;3073;42.660;23.316;2023-02-28T11:20:58;95016.63;;;13.07;100.00
6090;BME280;3073;42.660;23.316;2023-02-28T11:23:27;95021.06;;;12.73;100.00
6090;BME280;3073;42.660;23.316;2023-02-28T11:25:59;95029.84;;;12.77;100.00
6090;BME280;3073;42.660;23.316;2023-02-28T11:28:28;95014.88;;;12.52;100.00
6090;BME280;3073;42.660;23.316;2023-02-28T11:33:50;95017.09;;;13.20;100.00
6090;BME280;3073;42.660;23.316;2023-02-28T11:36:19;95021.00;;;13.50;100.00
6090;BME280;3073;42.660;23.316;2023-02-28T11:38:50;95007.44;;;12.89;100.00
6090;BME280;3073;42.660;23.316;2023-02-28T11:41:40;95008.06;;;12.41;100.00
6090;BME280;3073;42.660;23.316;2023-02-28T11:44:23;95011.69;;;12.62;100.00
6090;BME280;3073;42.660;23.316;2023-02-28T11:46:58;95010.78;;;12.89;100.00
6090;BME280;3073;42.660;23.316;2023-02-28T11:49:37;95007.16;;;13.07;100.00
6090;BME280;3073;42.660;23.316;2023-02-28T11:52:20;95002.84;;;13.83;100.00
6090;BME280;3073;42.660;23.316;2023-02-28T11:55:00;95000.88;;;14.59;100.00
6090;BME280;3073;42.660;23.316;2023-02-28T11:57:40;94996.75;;;15.00;100.00
6090;BME280;3073;42.660;23.316;2023-02-28T12:00:29;94998.72;;;14.40;100.00
6090;BME280;3073;42.660;23.316;2023-02-28T12:03:11;94999.16;;;14.01;100.00
6090;BME280;3073;42.660;23.316;2023-02-28T12:05:45;94985.53;;;14.32;100.00
6090;BME280;3073;42.660;23.316;2023-02-28T12:08:26;94995.00;;;13.94;100.00
6090;BME280;3073;42.660;23.316;2023-02-28T12:11:09;95004.34;;;14.06;100.00
6090;BME280;3073;42.660;23.316;2023-02-28T12:13:45;95007.56;;;13.64;100.00
6090;BME280;3073;42.660;23.316;2023-02-28T12:16:38;94994.19;;;12.54;100.00
6090;BME280;3073;42.660;23.316;2023-02-28T12:19:19;94992.34;;;12.87;100.00
6090;BME280;3073;42.660;23.316;2023-02-28T12:22:37;94990.13;;;12.96;100.00
6090;BME280;3073;42.660;23.316;2023-02-28T12:25:30;94992.94;;;13.16;100.00
6090;BME280;3073;42.660;23.316;2023-02-28T12:28:04;94994.41;;;12.90;100.00
6090;BME280;3073;42.660;23.316;2023-02-28T12:30:34;95000.47;;;13.23;100.00
6090;BME280;3073;42.660;23.316;2023-02-28T12:33:05;94991.31;;;12.88;100.00
6090;BME280;3073;42.660;23.316;2023-02-28T12:35:34;94997.84;;;12.79;100.00
6090;BME280;3073;42.660;23.316;2023-02-28T12:38:10;94996.59;;;12.82;100.00
6090;BME280;3073;42.660;23.316;2023-02-28T12:40:45;95002.66;;;12.76;100.00
6090;BME280;3073;42.660;23.316;2023-02-28T12:43:16;94992.41;;;12.37;100.00
6090;BME280;3073;42.660;23.316;2023-02-28T12:45:47;95000.81;;;12.00;100.00
6090;BME280;3073;42.660;23.316;2023-02-28T12:48:20;94990.25;;;12.13;100.00
6090;BME280;3073;42.660;23.316;2023-02-28T12:50:48;94992.34;;;12.16;100.00
6090;BME280;3073;42.660;23.316;2023-02-28T12:53:22;94987.97;;;12.50;100.00
6090;BME280;3073;42.660;23.316;2023-02-28T12:55:57;94987.41;;;12.64;100.00
6090;BME280;3073;42.660;23.316;2023-02-28T12:58:35;94991.78;;;12.47;100.00
6090;BME280;3073;42.660;23.316;2023-02-28T13:01:22;94989.47;;;12.46;100.00
6090;BME280;3073;42.660;23.316;2023-02-28T13:04:27;94982.69;;;12.56;100.00
6090;BME280;3073;42.660;23.316;2023-02-28T13:09:53;94991.25;;;12.45;100.00
6090;BME280;3073;42.660;23.316;2023-02-28T13:12:21;94992.19;;;12.39;100.00
6090;BME280;3073;42.660;23.316;2023-02-28T13:14:49;94990.09;;;12.36;100.00
6090;BME280;3073;42.660;23.316;2023-02-28T13:17:19;94996.06;;;12.25;100.00
6090;BME280;3073;42.660;23.316;2023-02-28T13:19:56;94986.13;;;11.95;100.00
6090;BME280;3073;42.660;23.316;2023-02-28T13:22:37;94986.53;;;11.59;100.00
6090;BME280;3073;42.660;23.316;2023-02-28T13:31:20;94979.03;;;11.97;100.00
6090;BME280;3073;42.660;23.316;2023-02-28T13:34:13;94973.34;;;12.12;100.00
6090;BME280;3073;42.660;23.316;2023-02-28T13:36:41;94976.84;;;12.06;100.00
6090;BME280;3073;42.660;23.316;2023-02-28T13:39:49;94978.94;;;12.09;100.00
6090;BME280;3073;42.660;23.316;2023-02-28T13:42:52;94968.97;;;12.07;100.00
6090;BME280;3073;42.660;23.316;2023-02-28T13:45:37;94977.00;;;12.16;100.00
6090;BME280;3073;42.660;23.316;2023-02-28T13:48:19;94974.94;;;12.51;100.00
6090;BME280;3073;42.660;23.316;2023-02-28T13:50:49;94964.56;;;12.41;100.00
6090;BME280;3073;42.660;23.316;2023-02-28T13:53:48;94957.63;;;11.86;100.00